createdAt,value
2019-03-01T00:03:34.351Z,8.80
2019-03-01T00:09:39.816Z,8.80
2019-03-01T00:15:18.918Z,9.10
2019-03-01T00:21:07.265Z,9.20
2019-03-01T00:26:43.699Z,9.20
2019-03-01T00:32:17.788Z,9.10
2019-03-01T00:38:22.279Z,8.90
2019-03-01T00:44:13.946Z,8.90
2019-03-01T00:49:19.287Z,8.90
2019-03-01T00:54:25.867Z,8.90
2019-03-01T00:59:32.876Z,8.90
2019-03-01T01:04:38.921Z,8.90
2019-03-01T01:09:45.475Z,9.00
2019-03-01T01:14:50.775Z,9.00
2019-03-01T01:19:57.545Z,9.00
2019-03-01T01:25:02.870Z,9.00
2019-03-01T01:30:10.315Z,8.90
2019-03-01T01:35:15.643Z,8.80
2019-03-01T01:40:22.070Z,8.80
2019-03-01T01:45:27.359Z,8.80
2019-03-01T01:50:33.804Z,8.70
2019-03-01T01:55:39.322Z,8.60
2019-03-01T02:00:45.757Z,8.60
2019-03-01T02:05:51.552Z,8.50
2019-03-01T02:10:58.193Z,8.40
2019-03-01T02:16:04.555Z,8.50
2019-03-01T02:21:11.076Z,8.50
2019-03-01T02:26:16.430Z,8.50
2019-03-01T02:31:23.078Z,8.40
2019-03-01T02:36:28.449Z,8.40
2019-03-01T02:41:34.829Z,8.40
2019-03-01T02:46:40.279Z,8.40
2019-03-01T02:51:46.170Z,8.30
2019-03-01T02:56:51.813Z,8.30
2019-03-01T03:01:57.908Z,8.30
2019-03-01T03:07:13.452Z,8.30
2019-03-01T03:12:18.828Z,8.30
2019-03-01T03:17:25.347Z,8.40
2019-03-01T03:22:30.730Z,8.30
2019-03-01T03:27:37.571Z,8.30
2019-03-01T03:32:43.071Z,8.20
2019-03-01T03:37:50.187Z,8.00
2019-03-01T03:42:55.953Z,7.90
2019-03-01T03:48:02.446Z,7.80
2019-03-01T03:53:07.960Z,7.80
2019-03-01T03:58:14.349Z,7.70
2019-03-01T04:03:20.030Z,7.50
2019-03-01T04:08:26.294Z,7.40
2019-03-01T04:13:31.959Z,7.40
2019-03-01T04:18:37.899Z,7.40
2019-03-01T04:23:43.327Z,7.40
2019-03-01T04:28:48.668Z,7.30
2019-03-01T04:33:53.983Z,7.30
2019-03-01T04:38:59.303Z,7.20
2019-03-01T04:44:04.740Z,7.20
2019-03-01T04:49:10.283Z,7.20
2019-03-01T04:54:15.595Z,7.10
2019-03-01T04:59:20.918Z,7.10
2019-03-01T05:04:26.355Z,7.10
2019-03-01T05:09:31.688Z,7.10
2019-03-01T05:14:37.078Z,7.10
2019-03-01T05:19:42.400Z,7.20
2019-03-01T05:24:47.728Z,7.10
2019-03-01T05:29:53.063Z,7.20
2019-03-01T05:34:58.395Z,7.20
2019-03-01T05:40:05.505Z,7.20
2019-03-01T05:45:16.576Z,7.10
2019-03-01T05:50:21.892Z,7.10
2019-03-01T05:55:27.315Z,7.10
2019-03-01T06:00:32.649Z,7.10
2019-03-01T06:05:39.980Z,7.10
2019-03-01T06:11:28.219Z,7.10
2019-03-01T06:17:19.461Z,7.00
2019-03-01T06:23:02.523Z,7.00
2019-03-01T06:29:04.995Z,7.10
2019-03-01T06:34:50.047Z,7.00
2019-03-01T06:40:42.344Z,7.10
2019-03-01T06:46:14.038Z,7.00
2019-03-01T06:51:31.445Z,7.00
2019-03-01T06:56:36.770Z,7.00
2019-03-01T07:01:43.515Z,7.10
2019-03-01T07:06:48.859Z,7.20
2019-03-01T07:11:54.175Z,7.30
2019-03-01T07:16:59.497Z,7.40
2019-03-01T07:22:04.880Z,7.50
2019-03-01T07:27:12.259Z,7.50
2019-03-01T07:32:17.173Z,7.60
2019-03-01T07:37:22.538Z,7.60
2019-03-01T07:42:27.868Z,7.70
2019-03-01T07:47:34.234Z,7.80
2019-03-01T07:52:39.623Z,7.70
2019-03-01T07:57:46.557Z,7.70
2019-03-01T08:02:51.892Z,7.80
2019-03-01T08:08:02.554Z,7.80
2019-03-01T08:13:04.420Z,7.70
2019-03-01T08:18:09.749Z,7.70
2019-03-01T08:23:15.075Z,7.70
2019-03-01T08:28:22.059Z,7.80
2019-03-01T08:33:28.599Z,7.90
2019-03-01T08:38:33.944Z,8.30
2019-03-01T08:43:39.248Z,8.50
2019-03-01T08:48:44.580Z,8.40
2019-03-01T08:53:50.987Z,8.30
2019-03-01T08:58:56.459Z,8.70
2019-03-01T09:04:04.979Z,8.90
2019-03-01T09:09:10.384Z,8.90
2019-03-01T09:14:15.791Z,9.10
2019-03-01T09:19:22.364Z,9.10
2019-03-01T09:24:29.201Z,9.30
2019-03-01T09:29:41.527Z,9.40
2019-03-01T09:34:42.062Z,9.40
2019-03-01T09:39:53.646Z,9.50
2019-03-01T09:44:57.596Z,9.30
2019-03-01T09:50:02.921Z,9.40
2019-03-01T09:55:08.327Z,9.20
2019-03-01T10:00:14.392Z,9.50
2019-03-01T10:05:19.704Z,9.90
2019-03-01T10:10:27.039Z,9.80
2019-03-01T10:15:32.428Z,9.80
2019-03-01T10:20:37.748Z,10.00
2019-03-01T10:25:43.079Z,10.10
2019-03-01T10:30:48.399Z,9.60
2019-03-01T10:35:53.715Z,9.50
2019-03-01T10:40:59.116Z,9.80
2019-03-01T10:46:04.443Z,9.70
2019-03-01T10:51:09.778Z,9.80
2019-03-01T10:56:15.095Z,9.70
2019-03-01T11:01:20.446Z,9.50
2019-03-01T11:06:25.803Z,9.60
2019-03-01T11:11:31.136Z,9.70
2019-03-01T11:16:36.461Z,9.60
2019-03-01T11:21:41.783Z,9.70
2019-03-01T11:26:47.139Z,9.60
2019-03-01T11:31:52.450Z,9.40
2019-03-01T11:36:57.779Z,9.30
2019-03-01T11:42:03.138Z,9.40
2019-03-01T11:47:08.431Z,9.50
2019-03-01T11:52:13.752Z,9.50
2019-03-01T11:57:19.067Z,9.70
2019-03-01T12:02:24.391Z,9.60
2019-03-01T12:07:29.764Z,9.30
2019-03-01T12:12:35.155Z,9.10
2019-03-01T12:17:40.665Z,9.10
2019-03-01T12:22:46.200Z,9.30
2019-03-01T12:27:51.584Z,9.70
2019-03-01T12:32:56.904Z,9.70
2019-03-01T12:38:02.224Z,9.70
2019-03-01T12:43:07.549Z,9.50
2019-03-01T12:48:12.898Z,9.10
2019-03-01T12:53:18.201Z,9.10
2019-03-01T12:58:23.600Z,9.20
2019-03-01T13:03:30.109Z,9.10
2019-03-01T13:08:36.651Z,8.90
2019-03-01T13:13:42.049Z,8.90
2019-03-01T13:18:50.950Z,9.00
2019-03-01T13:23:54.694Z,8.90
2019-03-01T13:29:00.162Z,9.00
2019-03-01T13:34:05.578Z,9.00
2019-03-01T13:39:11.294Z,9.10
2019-03-01T13:44:16.583Z,9.10
2019-03-01T13:49:22.132Z,9.20
2019-03-01T13:54:27.984Z,9.60
2019-03-01T13:59:34.054Z,10.00
2019-03-01T14:04:40.255Z,9.90
2019-03-01T14:09:46.588Z,9.60
2019-03-01T14:14:51.989Z,9.40
2019-03-01T14:19:57.300Z,9.20
2019-03-01T14:25:05.242Z,9.10
2019-03-01T14:30:14.611Z,9.10
2019-03-01T14:35:20.171Z,9.10
2019-03-01T14:40:26.881Z,9.20
2019-03-01T14:45:32.281Z,9.20
2019-03-01T14:50:37.614Z,9.10
2019-03-01T14:55:45.951Z,9.10
2019-03-01T15:01:01.951Z,9.10
2019-03-01T15:06:10.931Z,9.20
2019-03-01T15:11:17.961Z,9.40
2019-03-01T15:16:23.393Z,9.60
2019-03-01T15:21:28.772Z,9.70
2019-03-01T15:26:34.143Z,9.60
2019-03-01T15:31:40.257Z,9.50
2019-03-01T15:36:45.825Z,9.70
2019-03-01T15:41:51.168Z,9.70
2019-03-01T15:46:56.508Z,9.80
2019-03-01T15:52:01.856Z,9.70
2019-03-01T15:57:07.612Z,9.50
2019-03-01T16:02:12.961Z,9.50
2019-03-01T16:07:18.524Z,9.40
2019-03-01T16:12:23.857Z,9.40
2019-03-01T16:17:29.653Z,9.40
2019-03-01T16:22:34.968Z,9.40
2019-03-01T16:27:40.281Z,9.30
2019-03-01T16:32:49.557Z,9.30
2019-03-01T16:37:52.933Z,9.20
2019-03-01T16:42:58.985Z,9.10
2019-03-01T16:48:04.330Z,9.00
2019-03-01T16:53:09.649Z,9.00
2019-03-01T16:58:14.988Z,9.00
2019-03-01T17:03:20.312Z,8.90
2019-03-01T17:08:25.772Z,8.90
2019-03-01T17:13:31.174Z,8.80
2019-03-01T17:18:37.631Z,8.70
2019-03-01T17:23:42.960Z,8.70
2019-03-01T17:28:49.765Z,8.60
2019-03-01T17:33:55.775Z,8.50
2019-03-01T17:39:01.237Z,8.40
2019-03-01T17:44:09.520Z,8.40
2019-03-01T17:49:15.000Z,8.30
2019-03-01T17:54:22.297Z,8.30
2019-03-01T17:59:27.513Z,8.20
2019-03-01T18:04:33.669Z,8.30
2019-03-01T18:09:39.887Z,8.30
2019-03-01T18:14:45.267Z,8.40
2019-03-01T18:19:50.584Z,8.40
2019-03-01T18:24:55.931Z,8.40
2019-03-01T18:30:01.276Z,8.30
2019-03-01T18:35:08.062Z,8.30
2019-03-01T18:40:16.897Z,8.20
2019-03-01T18:45:21.718Z,8.20
2019-03-01T18:50:31.198Z,8.20
2019-03-01T18:55:35.659Z,8.10
2019-03-01T19:00:41.439Z,8.00
2019-03-01T19:05:46.936Z,8.00
2019-03-01T19:10:54.389Z,8.00
2019-03-01T19:15:59.248Z,7.90
2019-03-01T19:21:04.611Z,5.00
2019-03-01T19:26:10.620Z,7.90
2019-03-01T19:31:16.048Z,7.90
2019-03-01T19:36:21.379Z,7.90
2019-03-01T19:41:27.776Z,7.90
2019-03-01T19:46:33.118Z,7.90
2019-03-01T19:51:38.659Z,7.80
2019-03-01T19:56:45.468Z,7.90
2019-03-01T20:01:52.970Z,7.90
2019-03-01T20:07:01.398Z,8.00
2019-03-01T20:12:07.797Z,8.00
2019-03-01T20:17:13.751Z,8.10
2019-03-01T20:22:20.548Z,8.00
2019-03-01T20:27:27.371Z,8.00
2019-03-01T20:32:33.653Z,8.00
2019-03-01T20:37:40.199Z,8.00
2019-03-01T20:42:46.272Z,8.00
2019-03-01T20:47:53.493Z,8.00
2019-03-01T20:52:59.364Z,8.00
2019-03-01T20:58:05.165Z,8.00
2019-03-01T21:03:11.194Z,8.00
2019-03-01T21:08:17.877Z,8.00
2019-03-01T21:13:23.628Z,8.00
2019-03-01T21:18:30.748Z,8.00
2019-03-01T21:23:36.824Z,8.00
2019-03-01T21:28:42.221Z,7.90
2019-03-01T21:33:47.996Z,7.80
2019-03-01T21:38:54.224Z,7.80
2019-03-01T21:44:00.084Z,7.70
2019-03-01T21:49:06.402Z,7.60
2019-03-01T21:54:12.569Z,7.50
2019-03-01T21:59:18.810Z,7.40
2019-03-01T22:04:26.368Z,7.50
2019-03-01T22:09:33.778Z,7.50
2019-03-01T22:14:40.305Z,7.40
2019-03-01T22:19:47.275Z,7.40
2019-03-01T22:24:54.631Z,7.30
2019-03-01T22:30:01.451Z,7.30
2019-03-01T22:35:09.575Z,7.30
2019-03-01T22:40:16.824Z,7.20
2019-03-01T22:45:24.951Z,7.10
2019-03-01T22:50:34.078Z,7.10
2019-03-01T22:55:43.407Z,7.10
2019-03-01T23:01:17.480Z,7.10
2019-03-01T23:06:26.777Z,7.00
2019-03-01T23:11:33.664Z,6.90
2019-03-01T23:16:40.095Z,6.80
2019-03-01T23:21:46.259Z,6.80
2019-03-01T23:26:53.617Z,6.80
2019-03-01T23:32:03.202Z,6.90
2019-03-01T23:37:10.210Z,6.80
2019-03-01T23:42:17.331Z,6.90
2019-03-01T23:47:28.143Z,6.80
2019-03-01T23:52:36.306Z,6.80
2019-03-01T23:57:43.372Z,6.90
